createdAt,value
2019-05-09T00:00:06.680Z,1.40
2019-05-09T00:04:09.069Z,1.60
2019-05-09T00:08:11.070Z,1.10
2019-05-09T00:12:14.256Z,1.40
2019-05-09T00:16:17.369Z,1.00
2019-05-09T00:20:25.437Z,1.10
2019-05-09T00:24:27.370Z,1.10
2019-05-09T00:28:33.731Z,1.23
2019-05-09T00:32:36.239Z,1.10
2019-05-09T00:36:38.410Z,1.30
2019-05-09T00:40:54.639Z,0.90
2019-05-09T00:44:54.103Z,1.10
2019-05-09T00:48:57.694Z,1.85
2019-05-09T00:52:59.622Z,1.20
2019-05-09T00:57:03.235Z,1.10
2019-05-09T01:01:05.300Z,1.00
2019-05-09T01:05:07.415Z,1.00
2019-05-09T01:09:09.404Z,0.70
2019-05-09T01:13:11.344Z,0.90
2019-05-09T01:17:13.760Z,0.70
2019-05-09T01:21:16.585Z,0.67
2019-05-09T01:25:18.570Z,0.70
2019-05-09T01:29:20.513Z,0.80
2019-05-09T01:33:24.745Z,0.73
2019-05-09T01:37:26.753Z,0.90
2019-05-09T01:41:33.426Z,1.07
2019-05-09T01:45:34.197Z,0.87
2019-05-09T01:49:36.145Z,0.80
2019-05-09T01:53:43.718Z,0.93
2019-05-09T01:57:48.012Z,0.70
2019-05-09T02:01:50.308Z,1.02
2019-05-09T02:05:54.454Z,1.03
2019-05-09T02:09:56.463Z,0.50
2019-05-09T02:13:59.393Z,0.93
2019-05-09T02:18:05.899Z,1.03
2019-05-09T02:22:25.812Z,0.78
2019-05-09T02:26:27.745Z,0.80
2019-05-09T02:30:29.690Z,1.00
2019-05-09T02:34:34.740Z,1.10
2019-05-09T02:38:35.251Z,0.90
2019-05-09T02:42:39.562Z,1.00
2019-05-09T02:46:42.913Z,0.90
2019-05-09T02:50:44.854Z,1.20
2019-05-09T02:54:49.847Z,3.00
2019-05-09T02:58:52.176Z,1.98
2019-05-09T03:02:59.541Z,1.30
2019-05-09T03:07:01.757Z,1.10
2019-05-09T03:11:03.757Z,1.07
2019-05-09T03:15:09.174Z,1.57
2019-05-09T03:19:11.337Z,1.80
2019-05-09T03:23:14.911Z,1.80
2019-05-09T03:27:20.949Z,1.70
2019-05-09T03:31:29.860Z,2.10
2019-05-09T03:35:30.933Z,1.80
2019-05-09T03:39:32.869Z,1.87
2019-05-09T03:43:34.809Z,1.60
2019-05-09T03:47:50.539Z,1.50
2019-05-09T03:51:52.473Z,1.87
2019-05-09T03:55:57.688Z,2.00
2019-05-09T03:59:59.806Z,2.10
2019-05-09T04:04:01.740Z,1.77
2019-05-09T04:08:18.422Z,1.93
2019-05-09T04:12:21.616Z,1.53
2019-05-09T04:16:25.043Z,2.00
2019-05-09T04:20:27.725Z,2.00
2019-05-09T04:24:30.870Z,1.30
2019-05-09T04:28:32.865Z,1.77
2019-05-09T04:32:34.910Z,1.70
2019-05-09T04:36:39.731Z,1.90
2019-05-09T04:40:44.873Z,2.40
2019-05-09T04:44:49.606Z,1.90
2019-05-09T04:48:54.113Z,2.10
2019-05-09T04:52:54.265Z,3.00
2019-05-09T04:56:57.402Z,2.37
2019-05-09T05:01:19.617Z,2.30
2019-05-09T05:05:19.934Z,2.10
2019-05-09T05:09:21.922Z,2.83
2019-05-09T05:13:26.749Z,2.33
2019-05-09T05:17:30.252Z,2.70
2019-05-09T05:21:31.154Z,2.73
2019-05-09T05:25:33.079Z,2.33
2019-05-09T05:29:35.037Z,2.60
2019-05-09T05:33:38.249Z,2.43
2019-05-09T05:37:40.323Z,3.03
2019-05-09T05:41:42.254Z,2.03
2019-05-09T05:45:47.961Z,2.10
2019-05-09T05:49:50.619Z,2.83
2019-05-09T05:53:52.566Z,1.90
2019-05-09T05:57:54.519Z,2.23
2019-05-09T06:01:58.344Z,2.00
2019-05-09T06:06:00.088Z,2.33
2019-05-09T06:10:02.038Z,2.10
2019-05-09T06:14:11.081Z,1.60
2019-05-09T06:18:08.911Z,2.20
2019-05-09T06:22:10.851Z,2.00
2019-05-09T06:26:12.796Z,3.00
2019-05-09T06:30:19.314Z,5.43
2019-05-09T06:34:21.251Z,2.80
2019-05-09T06:38:23.194Z,1.10
2019-05-09T06:42:25.565Z,1.33
2019-05-09T06:46:31.978Z,3.10
2019-05-09T06:50:33.901Z,2.40
2019-05-09T06:54:35.834Z,1.60
2019-05-09T06:58:38.866Z,1.53
2019-05-09T07:02:42.429Z,1.50
2019-05-09T07:06:48.459Z,1.40
2019-05-09T07:10:50.711Z,1.40
2019-05-09T07:14:52.641Z,1.40
2019-05-09T07:18:54.607Z,1.50
2019-05-09T07:22:58.334Z,1.25
2019-05-09T07:27:00.199Z,1.00
2019-05-09T07:31:07.682Z,1.20
2019-05-09T07:35:18.796Z,1.60
2019-05-09T07:39:20.855Z,1.27
2019-05-09T07:43:22.789Z,1.47
2019-05-09T07:47:24.737Z,1.07
2019-05-09T07:51:27.694Z,0.97
2019-05-09T07:55:29.620Z,0.73
2019-05-09T07:59:31.551Z,1.00
2019-05-09T08:03:33.505Z,1.23
2019-05-09T08:07:37.889Z,0.87
2019-05-09T08:11:39.233Z,0.80
2019-05-09T08:15:41.305Z,0.60
2019-05-09T08:19:43.299Z,0.70
2019-05-09T08:23:45.232Z,0.80
2019-05-09T08:27:48.229Z,0.63
2019-05-09T08:31:50.731Z,0.78
2019-05-09T08:35:52.947Z,0.60
2019-05-09T08:39:54.903Z,0.68
2019-05-09T08:43:57.580Z,0.93
2019-05-09T08:47:59.697Z,0.60
2019-05-09T08:52:13.091Z,0.60
2019-05-09T08:56:09.023Z,0.70
2019-05-09T09:00:11.999Z,0.70
2019-05-09T09:04:14.021Z,0.60
2019-05-09T09:08:18.340Z,0.70
2019-05-09T09:12:31.335Z,0.70
2019-05-09T09:16:23.630Z,0.60
2019-05-09T09:20:25.571Z,0.70
2019-05-09T09:24:28.271Z,0.63
2019-05-09T09:28:30.359Z,0.97
2019-05-09T09:32:32.279Z,0.90
2019-05-09T09:36:34.170Z,1.13
2019-05-09T09:40:38.300Z,0.80
2019-05-09T09:44:39.776Z,0.70
2019-05-09T09:48:41.701Z,0.80
2019-05-09T09:52:43.836Z,1.00
2019-05-09T09:56:47.916Z,0.87
2019-05-09T10:00:53.616Z,0.90
2019-05-09T10:04:55.607Z,1.10
2019-05-09T10:08:58.074Z,0.80
2019-05-09T10:13:03.721Z,1.00
2019-05-09T10:17:05.543Z,0.93
2019-05-09T10:21:07.279Z,1.00
2019-05-09T10:25:09.841Z,0.90
2019-05-09T10:29:11.798Z,1.00
2019-05-09T10:33:13.961Z,0.73
2019-05-09T10:37:18.595Z,1.00
2019-05-09T10:41:20.597Z,0.97
2019-05-09T10:45:24.177Z,1.00
2019-05-09T10:49:26.069Z,0.90
2019-05-09T10:53:28.451Z,0.87
2019-05-09T10:57:32.275Z,1.07
2019-05-09T11:01:34.089Z,0.80
2019-05-09T11:05:36.010Z,1.10
2019-05-09T11:09:39.025Z,1.17
2019-05-09T11:13:41.043Z,1.03
2019-05-09T11:17:42.942Z,0.80
2019-05-09T11:21:44.856Z,2.70
2019-05-09T11:25:47.263Z,0.93
2019-05-09T11:29:52.454Z,0.83
2019-05-09T11:33:54.435Z,0.90
2019-05-09T11:37:58.667Z,1.80
2019-05-09T11:42:01.512Z,1.72
2019-05-09T11:46:03.783Z,0.85
2019-05-09T11:50:08.970Z,1.27
2019-05-09T11:54:11.078Z,1.80
2019-05-09T11:58:14.280Z,0.93
2019-05-09T12:02:18.070Z,1.20
2019-05-09T12:06:20.500Z,1.10
2019-05-09T12:10:23.509Z,1.00
2019-05-09T12:14:27.506Z,0.87
2019-05-09T12:18:29.022Z,1.00
2019-05-09T12:22:30.944Z,0.93
2019-05-09T12:26:32.901Z,0.80
2019-05-09T12:30:37.895Z,1.30
2019-05-09T12:34:39.378Z,1.07
2019-05-09T12:38:46.039Z,1.10
2019-05-09T12:42:46.022Z,1.03
2019-05-09T12:46:48.753Z,1.50
2019-05-09T12:50:50.951Z,1.07
2019-05-09T12:54:52.872Z,1.70
2019-05-09T12:58:54.789Z,1.42
2019-05-09T13:02:59.238Z,1.40
2019-05-09T13:07:00.434Z,1.10
2019-05-09T13:11:02.709Z,1.00
2019-05-09T13:15:05.870Z,0.95
2019-05-09T13:19:10.167Z,0.90
2019-05-09T13:23:12.071Z,1.00
2019-05-09T13:27:15.362Z,0.80
2019-05-09T13:31:18.241Z,1.20
2019-05-09T13:35:20.437Z,0.70
2019-05-09T13:39:22.354Z,0.70
2019-05-09T13:43:24.260Z,1.10
2019-05-09T13:47:28.073Z,0.77
2019-05-09T13:51:29.782Z,0.60
2019-05-09T13:55:31.699Z,0.53
2019-05-09T13:59:33.609Z,0.57
2019-05-09T14:03:38.613Z,0.40
2019-05-09T14:07:40.059Z,0.40
2019-05-09T14:11:41.981Z,0.50
2019-05-09T14:15:44.269Z,0.50
2019-05-09T14:19:50.291Z,0.37
2019-05-09T14:24:06.612Z,0.30
2019-05-09T14:27:54.531Z,0.30
2019-05-09T14:31:56.471Z,0.30
2019-05-09T14:35:59.444Z,0.40
2019-05-09T14:40:04.402Z,0.23
2019-05-09T14:44:05.150Z,0.37
2019-05-09T14:48:08.032Z,0.60
2019-05-09T14:52:10.074Z,0.40
2019-05-09T14:56:11.985Z,0.63
2019-05-09T15:00:14.398Z,0.70
2019-05-09T15:04:18.700Z,0.50
2019-05-09T15:08:19.900Z,0.70
2019-05-09T15:12:21.821Z,0.77
2019-05-09T15:16:23.730Z,0.13
2019-05-09T15:20:28.105Z,0.33
2019-05-09T15:24:30.799Z,0.60
2019-05-09T15:28:32.725Z,0.70
2019-05-09T15:32:34.619Z,0.50
2019-05-09T15:36:37.939Z,0.67
2019-05-09T15:40:40.046Z,0.47
2019-05-09T15:44:41.967Z,0.60
2019-05-09T15:48:43.869Z,0.70
2019-05-09T15:52:46.759Z,0.40
2019-05-09T15:56:48.679Z,0.60
2019-05-09T16:00:50.974Z,0.70
2019-05-09T16:04:52.892Z,0.63
2019-05-09T16:08:54.827Z,0.60
2019-05-09T16:12:56.815Z,0.60
2019-05-09T16:16:58.707Z,0.50
2019-05-09T16:21:00.657Z,0.40
2019-05-09T16:25:03.703Z,0.50
2019-05-09T16:29:08.304Z,0.40
2019-05-09T16:33:09.441Z,0.73
2019-05-09T16:37:11.416Z,0.73
2019-05-09T16:41:15.175Z,0.70
2019-05-09T16:45:18.395Z,0.50
2019-05-09T16:49:20.314Z,0.70
2019-05-09T16:53:22.216Z,0.83
2019-05-09T16:57:24.784Z,0.60
2019-05-09T17:01:28.389Z,1.23
2019-05-09T17:05:31.423Z,1.23
2019-05-09T17:09:37.729Z,0.77
2019-05-09T17:13:39.850Z,0.83
2019-05-09T17:17:41.924Z,0.80
2019-05-09T17:21:51.495Z,0.80
2019-05-09T17:25:53.399Z,0.90
2019-05-09T17:29:55.403Z,0.65
2019-05-09T17:33:58.041Z,0.72
2019-05-09T17:38:00.645Z,0.78
2019-05-09T17:42:02.663Z,0.87
2019-05-09T17:46:04.701Z,0.80
2019-05-09T17:50:07.959Z,0.70
2019-05-09T17:54:09.884Z,0.90
2019-05-09T17:58:26.147Z,0.77
2019-05-09T18:02:17.463Z,0.80
2019-05-09T18:06:19.367Z,0.60
2019-05-09T18:10:22.150Z,0.90
2019-05-09T18:14:24.075Z,0.80
2019-05-09T18:18:28.427Z,0.80
2019-05-09T18:22:29.738Z,0.83
2019-05-09T18:26:31.635Z,1.10
2019-05-09T18:30:33.742Z,0.90
2019-05-09T18:34:37.866Z,0.90
2019-05-09T18:38:39.294Z,0.80
2019-05-09T18:42:41.266Z,0.90
2019-05-09T18:46:55.024Z,0.80
2019-05-09T18:50:57.187Z,0.67
2019-05-09T18:54:59.074Z,0.77
2019-05-09T18:59:01.558Z,1.00
2019-05-09T19:03:03.454Z,0.80
2019-05-09T19:07:20.727Z,1.00
2019-05-09T19:11:09.035Z,0.80
2019-05-09T19:15:19.415Z,0.80
2019-05-09T19:19:25.459Z,0.90
2019-05-09T19:23:27.441Z,0.90
2019-05-09T19:27:29.343Z,1.00
2019-05-09T19:31:31.272Z,0.80
2019-05-09T19:35:33.263Z,1.17
2019-05-09T19:39:35.209Z,1.10
2019-05-09T19:43:37.108Z,1.10
2019-05-09T19:47:39.022Z,1.00
2019-05-09T19:51:42.057Z,0.93
2019-05-09T19:55:43.976Z,1.10
2019-05-09T19:59:46.167Z,1.30
2019-05-09T20:03:48.705Z,1.20
2019-05-09T20:07:51.904Z,1.20
2019-05-09T20:11:58.134Z,1.10
2019-05-09T20:16:00.043Z,1.00
2019-05-09T20:20:01.965Z,9.55
2019-05-09T20:24:04.711Z,3.20
2019-05-09T20:28:07.294Z,1.65
2019-05-09T20:32:09.279Z,1.40
2019-05-09T20:36:11.506Z,1.30
2019-05-09T20:40:14.461Z,1.30
2019-05-09T20:44:16.557Z,1.47
2019-05-09T20:48:18.717Z,1.33
2019-05-09T20:52:21.853Z,1.30
2019-05-09T20:56:24.092Z,1.60
2019-05-09T21:00:26.502Z,1.30
2019-05-09T21:04:28.582Z,1.37
2019-05-09T21:08:30.732Z,1.47
2019-05-09T21:12:32.894Z,1.70
2019-05-09T21:16:35.088Z,1.57
2019-05-09T21:20:38.139Z,1.50
2019-05-09T21:24:40.237Z,1.60
2019-05-09T21:28:42.330Z,1.60
2019-05-09T21:32:44.517Z,1.50
2019-05-09T21:36:46.403Z,1.50
2019-05-09T21:40:48.319Z,1.80
2019-05-09T21:44:51.349Z,1.30
2019-05-09T21:48:53.258Z,1.40
2019-05-09T21:52:56.256Z,1.42
2019-05-09T21:56:58.168Z,1.60
2019-05-09T22:01:01.923Z,1.45
2019-05-09T22:05:06.215Z,1.50
2019-05-09T22:09:10.283Z,1.50
2019-05-09T22:13:12.627Z,1.40
2019-05-09T22:17:25.434Z,1.70
2019-05-09T22:21:27.404Z,1.73
2019-05-09T22:25:29.313Z,1.53
2019-05-09T22:29:31.230Z,1.90
2019-05-09T22:33:33.139Z,2.10
2019-05-09T22:37:35.124Z,1.80
2019-05-09T22:41:37.052Z,1.80
2019-05-09T22:45:38.950Z,1.77
2019-05-09T22:49:40.956Z,2.00
2019-05-09T22:53:42.870Z,2.20
2019-05-09T22:57:44.768Z,2.50
2019-05-09T23:01:46.680Z,2.20
2019-05-09T23:05:48.658Z,2.10
2019-05-09T23:09:51.202Z,2.40
2019-05-09T23:13:53.129Z,2.50
2019-05-09T23:17:55.021Z,2.73
2019-05-09T23:21:56.934Z,2.70
2019-05-09T23:25:59.118Z,2.67
2019-05-09T23:30:01.427Z,2.80
2019-05-09T23:34:03.354Z,2.80
2019-05-09T23:38:05.251Z,2.40
2019-05-09T23:42:07.242Z,2.70
2019-05-09T23:46:09.154Z,2.58
2019-05-09T23:50:12.353Z,2.90
2019-05-09T23:54:45.032Z,2.83
2019-05-09T23:58:55.511Z,2.70
